Pays
Station

 

Conditions  météo  pour  Brevoort Island  -  Canada    Canada

  
-24 °C
    
 
 

METAR pour Brevoort Island :

CWOB 230600Z AUTO 24011KT ////SM //// OVC065 M24/M29 A2957

 

Voici le bulletin pour Brevoort Island - Canada.
 
Le bulletin a été fait il y a 31 minutes, à 06:00 UTC .
Le vent soufflait à la vitesse de 5.7 mètres par seconde de Ouest/Sud-ouest (240°).
 
La température était de -24 °C, avec un point de rosée à -29 °C.
La température ressentie était de -34 °C.
 
La pression atmosphérique était de 1001 hPa.
L'humidité relative était de 63.1%.
 
Le ciel était nuageux à partir d'une hauteur de 1981 mètres
 

 
 
 

Pays :   A   B   C   D   E   F   G   H   I   J   K   L   M   N   O   P   Q   R   S   T   U   V   W   Y   Z

 

Partenaires :  Info Météo avec Met'info
Météo Marine avec MeteoMarine.net
Infos Site  |  Infos Légales  |  Crédits  |  Confidentialité
Contactez-nous  |  Ajouter aux favoris
© 2013-2019 METAR - Tous droits réservés